createdAt,value
2018-08-16T00:00:15.198Z,16.50
2018-08-16T00:02:43.806Z,16.40
2018-08-16T00:05:13.547Z,16.40
2018-08-16T00:07:42.081Z,16.40
2018-08-16T00:10:13.156Z,16.30
2018-08-16T00:12:43.641Z,16.30
2018-08-16T00:15:11.854Z,16.20
2018-08-16T00:17:41.173Z,16.20
2018-08-16T00:20:09.998Z,16.20
2018-08-16T00:22:39.462Z,16.30
2018-08-16T00:25:08.666Z,16.30
2018-08-16T00:27:36.913Z,16.20
2018-08-16T00:30:08.313Z,16.20
2018-08-16T00:32:37.433Z,16.20
2018-08-16T00:35:05.650Z,16.10
2018-08-16T00:37:34.291Z,16.10
2018-08-16T00:40:02.736Z,16.00
2018-08-16T00:42:34.425Z,16.00
2018-08-16T00:45:05.172Z,16.00
2018-08-16T00:47:34.054Z,15.90
2018-08-16T00:50:02.964Z,15.80
2018-08-16T00:52:31.469Z,15.80
2018-08-16T00:55:00.234Z,15.80
2018-08-16T00:57:28.806Z,15.80
2018-08-16T00:59:57.021Z,15.90
2018-08-16T01:02:25.427Z,16.20
2018-08-16T01:04:54.193Z,15.80
2018-08-16T01:07:22.314Z,15.80
2018-08-16T01:09:50.991Z,15.90
2018-08-16T01:12:19.375Z,15.80
2018-08-16T01:14:48.404Z,15.80
2018-08-16T01:17:16.586Z,15.70
2018-08-16T01:19:45.428Z,15.70
2018-08-16T01:22:14.277Z,15.70
2018-08-16T01:24:42.926Z,15.60
2018-08-16T01:27:11.098Z,15.70
2018-08-16T01:29:39.668Z,15.60
2018-08-16T01:32:09.880Z,15.60
2018-08-16T01:34:38.737Z,15.60
2018-08-16T01:37:06.878Z,15.60
2018-08-16T01:39:35.785Z,15.60
2018-08-16T01:42:04.251Z,15.60
2018-08-16T01:44:33.346Z,15.50
2018-08-16T01:47:01.509Z,15.50
2018-08-16T01:49:35.241Z,15.50
2018-08-16T01:52:04.017Z,15.50
2018-08-16T01:54:34.293Z,15.50
2018-08-16T01:57:03.454Z,15.50
2018-08-16T01:59:32.018Z,15.50
2018-08-16T02:02:00.493Z,15.40
2018-08-16T02:04:28.612Z,15.40
2018-08-16T02:06:56.841Z,15.40
2018-08-16T02:09:25.105Z,15.40
2018-08-16T02:11:54.012Z,15.30
2018-08-16T02:14:22.861Z,15.30
2018-08-16T02:16:52.006Z,15.30
2018-08-16T02:19:21.362Z,15.30
2018-08-16T02:21:49.617Z,15.30
2018-08-16T02:24:18.229Z,15.30
2018-08-16T02:26:48.222Z,15.30
2018-08-16T02:29:16.417Z,15.30
2018-08-16T02:31:44.734Z,15.20
2018-08-16T02:34:12.869Z,15.20
2018-08-16T02:36:42.838Z,15.20
2018-08-16T02:39:11.182Z,15.20
2018-08-16T02:41:40.299Z,15.20
2018-08-16T02:44:09.578Z,15.20
2018-08-16T02:46:38.601Z,15.20
2018-08-16T02:49:07.157Z,15.10
2018-08-16T02:51:35.778Z,15.00
2018-08-16T02:54:03.958Z,15.00
2018-08-16T02:56:32.586Z,15.00
2018-08-16T02:59:01.814Z,15.00
2018-08-16T03:01:30.600Z,15.00
2018-08-16T03:03:59.260Z,15.00
2018-08-16T03:06:27.797Z,15.00
2018-08-16T03:08:55.933Z,14.90
2018-08-16T03:11:24.719Z,14.90
2018-08-16T03:13:53.472Z,14.90
2018-08-16T03:16:21.809Z,14.90
2018-08-16T03:18:50.574Z,14.90
2018-08-16T03:21:18.790Z,14.90
2018-08-16T03:23:46.945Z,14.90
2018-08-16T03:26:15.318Z,14.80
2018-08-16T03:28:44.069Z,14.90
2018-08-16T03:31:14.150Z,14.80
2018-08-16T03:33:42.297Z,14.70
2018-08-16T03:36:12.333Z,14.70
2018-08-16T03:38:40.593Z,14.70
2018-08-16T03:41:08.836Z,14.60
2018-08-16T03:43:37.133Z,14.60
2018-08-16T03:46:05.410Z,14.50
2018-08-16T03:48:34.594Z,14.60
2018-08-16T03:51:03.149Z,14.60
2018-08-16T03:53:31.994Z,14.60
2018-08-16T03:56:00.919Z,14.50
2018-08-16T03:58:29.161Z,14.50
2018-08-16T04:00:57.746Z,14.50
2018-08-16T04:03:26.401Z,14.50
2018-08-16T04:05:55.503Z,14.50
2018-08-16T04:08:24.441Z,14.50
2018-08-16T04:10:52.621Z,14.50
2018-08-16T04:13:21.210Z,14.50
2018-08-16T04:15:50.107Z,14.50
2018-08-16T04:18:19.278Z,14.50
2018-08-16T04:20:49.106Z,14.50
2018-08-16T04:23:17.959Z,14.50
2018-08-16T04:25:46.810Z,14.40
2018-08-16T04:28:15.297Z,14.50
2018-08-16T04:30:44.234Z,14.50
2018-08-16T04:33:12.471Z,14.50
2018-08-16T04:35:40.663Z,14.50
2018-08-16T04:38:09.586Z,14.50
2018-08-16T04:40:37.890Z,14.60
2018-08-16T04:43:06.432Z,14.60
2018-08-16T04:45:35.049Z,14.60
2018-08-16T04:48:03.206Z,14.60
2018-08-16T04:50:32.801Z,14.70
2018-08-16T04:53:01.831Z,14.70
2018-08-16T04:55:30.794Z,14.70
2018-08-16T04:57:59.055Z,14.70
2018-08-16T05:00:27.891Z,14.80
2018-08-16T05:02:56.050Z,14.80
2018-08-16T05:05:24.893Z,14.80
2018-08-16T05:07:53.129Z,14.80
2018-08-16T05:10:21.914Z,14.90
2018-08-16T05:12:51.189Z,15.00
2018-08-16T05:15:20.004Z,15.00
2018-08-16T05:17:48.383Z,15.00
2018-08-16T05:20:17.009Z,15.10
2018-08-16T05:22:45.493Z,15.10
2018-08-16T05:25:15.054Z,15.20
2018-08-16T05:27:43.545Z,15.30
2018-08-16T05:30:13.063Z,15.60
2018-08-16T05:32:42.923Z,15.90
2018-08-16T05:35:11.134Z,16.20
2018-08-16T05:37:39.379Z,16.40
2018-08-16T05:40:09.873Z,16.60
2018-08-16T05:42:38.657Z,16.80
2018-08-16T05:45:08.463Z,16.90
2018-08-16T05:47:37.937Z,17.00
2018-08-16T05:50:09.220Z,17.00
2018-08-16T05:52:38.172Z,17.10
2018-08-16T05:55:06.877Z,17.20
2018-08-16T05:57:35.019Z,17.30
2018-08-16T06:00:04.910Z,17.50
2018-08-16T06:02:33.668Z,17.60
2018-08-16T06:05:01.847Z,17.90
2018-08-16T06:07:31.056Z,18.20
2018-08-16T06:09:59.419Z,18.60
2018-08-16T06:12:28.576Z,18.80
2018-08-16T06:14:56.921Z,19.10
2018-08-16T06:17:25.961Z,19.40
2018-08-16T06:19:54.590Z,19.60
2018-08-16T06:22:24.413Z,19.60
2018-08-16T06:24:54.465Z,19.90
2018-08-16T06:27:22.717Z,20.10
2018-08-16T06:29:51.105Z,19.90
2018-08-16T06:32:19.334Z,20.40
2018-08-16T06:34:48.257Z,20.50
2018-08-16T06:37:17.494Z,20.90
2018-08-16T06:39:45.778Z,21.20
2018-08-16T06:42:13.964Z,21.40
2018-08-16T06:44:42.156Z,21.30
2018-08-16T06:47:14.838Z,21.20
2018-08-16T06:49:43.351Z,21.80
2018-08-16T06:52:12.494Z,21.80
2018-08-16T06:54:40.963Z,22.00
2018-08-16T06:57:09.650Z,22.20
2018-08-16T06:59:38.436Z,22.70
2018-08-16T07:02:07.695Z,23.30
2018-08-16T07:04:36.011Z,23.30
2018-08-16T07:07:04.818Z,23.50
2018-08-16T07:09:34.638Z,22.30
2018-08-16T07:12:03.652Z,22.00
2018-08-16T07:14:32.218Z,21.80
2018-08-16T07:17:00.722Z,21.80
2018-08-16T07:19:28.863Z,21.70
2018-08-16T07:21:57.014Z,22.00
2018-08-16T07:24:25.601Z,22.20
2018-08-16T07:26:53.749Z,22.30
2018-08-16T07:29:22.617Z,22.10
2018-08-16T07:31:55.497Z,22.20
2018-08-16T07:34:23.646Z,22.00
2018-08-16T07:36:53.286Z,22.20
2018-08-16T07:39:22.549Z,22.20
2018-08-16T07:41:51.535Z,22.70
2018-08-16T07:44:20.361Z,23.00
2018-08-16T07:46:48.570Z,23.10
2018-08-16T07:49:16.885Z,23.10
2018-08-16T07:51:47.926Z,23.10
2018-08-16T07:54:17.946Z,23.40
2018-08-16T07:56:46.333Z,23.50
2018-08-16T07:59:14.541Z,23.30
2018-08-16T08:01:43.490Z,23.30
2018-08-16T08:04:11.982Z,23.80
2018-08-16T08:06:40.666Z,24.00
2018-08-16T08:09:09.842Z,24.20
2018-08-16T08:11:38.673Z,24.00
2018-08-16T08:14:08.307Z,23.90
2018-08-16T08:16:37.316Z,23.70
2018-08-16T08:19:06.790Z,24.00
2018-08-16T08:21:35.561Z,24.00
2018-08-16T08:24:03.756Z,24.50
2018-08-16T08:26:32.086Z,24.90
2018-08-16T08:29:01.302Z,24.70
2018-08-16T08:31:30.924Z,24.60
2018-08-16T08:33:59.771Z,25.20
2018-08-16T08:36:40.626Z,26.20
2018-08-16T08:39:10.382Z,27.40
2018-08-16T08:41:39.408Z,27.80
2018-08-16T08:44:16.440Z,28.60
2018-08-16T08:46:44.966Z,28.50
2018-08-16T08:49:13.778Z,27.40
2018-08-16T08:51:42.006Z,27.20
2018-08-16T08:54:54.096Z,27.60
2018-08-16T08:57:34.618Z,28.00
2018-08-16T09:00:02.777Z,27.70
2018-08-16T09:02:31.444Z,28.20
2018-08-16T09:05:00.337Z,28.30
2018-08-16T09:07:28.518Z,28.40
2018-08-16T09:11:20.288Z,28.70
2018-08-16T09:14:03.097Z,29.20
2018-08-16T09:16:33.942Z,29.40
2018-08-16T09:19:03.244Z,27.70
2018-08-16T09:21:32.526Z,28.40
2018-08-16T09:24:00.722Z,28.30
2018-08-16T09:26:34.312Z,27.80
2018-08-16T09:29:04.522Z,28.30
2018-08-16T09:31:45.490Z,28.70
2018-08-16T09:34:19.389Z,29.00
2018-08-16T09:36:47.695Z,29.20
2018-08-16T09:39:16.664Z,28.90
2018-08-16T09:41:44.724Z,28.70
2018-08-16T09:44:13.627Z,28.60
2018-08-16T09:46:58.506Z,28.40
2018-08-16T09:49:27.170Z,27.20
2018-08-16T09:51:55.960Z,27.80
2018-08-16T09:54:24.583Z,28.10
2018-08-16T09:56:54.106Z,27.20
2018-08-16T09:59:22.542Z,26.20
2018-08-16T10:01:51.390Z,27.10
2018-08-16T10:04:20.124Z,27.80
2018-08-16T10:06:48.613Z,28.70
2018-08-16T10:09:19.047Z,29.60
2018-08-16T10:11:48.026Z,29.90
2018-08-16T10:14:17.031Z,29.30
2018-08-16T10:16:45.330Z,29.70
2018-08-16T10:19:13.897Z,29.80
2018-08-16T10:21:42.215Z,30.30
2018-08-16T10:24:10.496Z,30.10
2018-08-16T10:26:38.705Z,30.20
2018-08-16T10:29:07.447Z,30.20
2018-08-16T10:31:36.030Z,31.20
2018-08-16T10:34:04.425Z,31.90
2018-08-16T10:36:32.651Z,32.70
2018-08-16T10:39:00.899Z,32.70
2018-08-16T10:41:29.895Z,32.10
2018-08-16T10:43:58.512Z,31.90
2018-08-16T10:46:26.801Z,32.00
2018-08-16T10:48:56.578Z,32.10
2018-08-16T10:51:25.069Z,31.50
2018-08-16T10:53:53.942Z,30.60
2018-08-16T10:56:22.288Z,29.50
2018-08-16T10:58:50.453Z,29.40
2018-08-16T11:01:18.719Z,30.40
2018-08-16T11:03:47.199Z,31.30
2018-08-16T11:06:16.202Z,31.80
2018-08-16T11:08:44.633Z,32.00
2018-08-16T11:11:12.839Z,32.10
2018-08-16T11:13:41.181Z,32.20
2018-08-16T11:16:10.271Z,32.00
2018-08-16T11:18:38.539Z,31.50
2018-08-16T11:21:07.002Z,31.10
2018-08-16T11:23:35.217Z,30.00
2018-08-16T11:26:04.395Z,30.10
2018-08-16T11:28:32.740Z,30.60
2018-08-16T11:31:03.087Z,30.70
2018-08-16T11:33:31.396Z,31.30
2018-08-16T11:35:59.672Z,32.10
2018-08-16T11:38:27.779Z,31.00
2018-08-16T11:40:56.083Z,31.00
2018-08-16T11:43:26.191Z,29.60
2018-08-16T11:45:56.121Z,29.60
2018-08-16T11:48:24.375Z,29.90
2018-08-16T11:50:52.686Z,30.60
2018-08-16T11:53:21.014Z,30.60
2018-08-16T11:55:49.370Z,30.60
2018-08-16T11:58:18.321Z,31.00
2018-08-16T12:00:46.475Z,31.10
2018-08-16T12:03:15.313Z,30.50
2018-08-16T12:05:43.538Z,30.40
2018-08-16T12:08:11.730Z,30.50
2018-08-16T12:10:40.325Z,31.30
2018-08-16T12:13:08.852Z,30.90
2018-08-16T12:15:37.191Z,30.70
2018-08-16T12:18:06.259Z,30.40
2018-08-16T12:20:34.470Z,30.60
2018-08-16T12:23:02.670Z,31.20
2018-08-16T12:28:05.631Z,29.90
2018-08-16T12:30:34.164Z,30.30
2018-08-16T12:33:02.365Z,30.80
2018-08-16T12:35:30.982Z,30.50
2018-08-16T12:37:59.597Z,29.60
2018-08-16T12:40:27.976Z,29.70
2018-08-16T12:42:56.217Z,28.90
2018-08-16T12:45:24.346Z,29.10
2018-08-16T12:47:52.726Z,30.00
2018-08-16T12:50:20.819Z,30.10
2018-08-16T12:52:49.564Z,29.90
2018-08-16T12:55:18.409Z,30.00
2018-08-16T12:57:46.608Z,29.70
2018-08-16T13:00:17.058Z,30.20
2018-08-16T13:02:48.051Z,29.90
2018-08-16T13:05:16.202Z,30.40
2018-08-16T13:07:44.847Z,30.50
2018-08-16T13:10:13.630Z,30.30
2018-08-16T13:12:41.770Z,29.80
2018-08-16T13:15:10.803Z,29.90
2018-08-16T13:17:40.177Z,29.90
2018-08-16T13:20:09.030Z,29.80
2018-08-16T13:22:37.485Z,30.00
2018-08-16T13:25:06.542Z,30.00
2018-08-16T13:28:37.779Z,30.00
2018-08-16T13:31:06.265Z,29.60
2018-08-16T13:33:34.674Z,29.50
2018-08-16T13:36:02.831Z,29.40
2018-08-16T13:38:31.052Z,29.40
2018-08-16T13:40:59.401Z,29.00
2018-08-16T13:43:27.655Z,29.00
2018-08-16T13:45:56.122Z,28.80
2018-08-16T13:48:24.403Z,28.80
2018-08-16T13:50:52.591Z,28.60
2018-08-16T13:53:21.270Z,29.00
2018-08-16T13:55:50.058Z,28.90
2018-08-16T13:58:18.275Z,28.50
2018-08-16T14:00:46.414Z,28.70
2018-08-16T14:03:14.721Z,28.90
2018-08-16T14:05:43.070Z,29.00
2018-08-16T14:08:11.569Z,29.00
2018-08-16T14:10:39.660Z,29.00
2018-08-16T14:13:08.088Z,28.90
2018-08-16T14:15:36.586Z,28.80
2018-08-16T14:18:05.696Z,28.90
2018-08-16T14:20:34.068Z,28.80
2018-08-16T14:23:02.264Z,28.70
2018-08-16T14:25:30.469Z,28.60
2018-08-16T14:27:59.545Z,28.50
2018-08-16T14:30:28.024Z,28.30
2018-08-16T14:32:56.181Z,28.30
2018-08-16T14:35:25.061Z,28.20
2018-08-16T14:37:53.264Z,28.30
2018-08-16T14:40:22.526Z,28.30
2018-08-16T14:42:52.426Z,28.50
2018-08-16T14:45:20.694Z,28.70
2018-08-16T14:47:50.294Z,28.30
2018-08-16T14:50:18.510Z,28.10
2018-08-16T14:52:46.842Z,28.20
2018-08-16T14:55:15.025Z,28.40
2018-08-16T14:57:44.858Z,28.60
2018-08-16T15:00:13.086Z,28.70
2018-08-16T15:02:42.077Z,28.60
2018-08-16T15:05:11.017Z,28.50
2018-08-16T15:07:39.978Z,28.50
2018-08-16T15:10:08.275Z,28.30
2018-08-16T15:12:38.031Z,28.30
2018-08-16T15:15:06.946Z,28.20
2018-08-16T15:17:35.914Z,28.00
2018-08-16T15:20:06.057Z,27.90
2018-08-16T15:22:34.802Z,27.90
2018-08-16T15:25:04.918Z,28.00
2018-08-16T15:27:33.933Z,28.10
2018-08-16T15:30:02.849Z,28.20
2018-08-16T15:32:31.214Z,28.30
2018-08-16T15:34:59.491Z,28.30
2018-08-16T15:37:27.753Z,28.30
2018-08-16T15:39:56.058Z,28.40
2018-08-16T15:42:24.873Z,28.40
2018-08-16T15:44:53.728Z,28.30
2018-08-16T15:47:22.597Z,28.40
2018-08-16T15:49:50.771Z,28.50
2018-08-16T15:52:20.597Z,28.40
2018-08-16T15:54:50.036Z,28.50
2018-08-16T15:57:18.866Z,28.50
2018-08-16T15:59:47.155Z,28.70
2018-08-16T16:02:15.846Z,28.80
2018-08-16T16:04:44.148Z,28.60
2018-08-16T16:07:12.601Z,28.60
2018-08-16T16:09:41.438Z,28.60
2018-08-16T16:12:09.886Z,28.60
2018-08-16T16:14:38.770Z,28.50
2018-08-16T16:17:07.094Z,28.30
2018-08-16T16:19:35.819Z,28.10
2018-08-16T16:22:04.334Z,28.10
2018-08-16T16:24:33.342Z,27.90
2018-08-16T16:27:01.898Z,27.90
2018-08-16T16:29:30.390Z,27.90
2018-08-16T16:31:58.855Z,27.70
2018-08-16T16:34:27.822Z,27.70
2018-08-16T16:36:56.333Z,27.50
2018-08-16T16:39:24.576Z,27.50
2018-08-16T16:41:53.551Z,27.40
2018-08-16T16:44:21.893Z,27.30
2018-08-16T16:46:50.755Z,27.30
2018-08-16T16:49:23.838Z,27.40
2018-08-16T16:51:53.743Z,27.30
2018-08-16T16:54:21.977Z,27.20
2018-08-16T16:56:51.273Z,27.10
2018-08-16T16:59:19.849Z,27.00
2018-08-16T17:01:48.024Z,27.00
2018-08-16T17:04:17.191Z,26.90
2018-08-16T17:06:45.416Z,26.80
2018-08-16T17:09:14.262Z,26.80
2018-08-16T17:11:43.159Z,26.60
2018-08-16T17:14:11.943Z,26.60
2018-08-16T17:16:40.739Z,26.50
2018-08-16T17:19:09.164Z,26.50
2018-08-16T17:21:37.818Z,26.40
2018-08-16T17:24:06.234Z,26.30
2018-08-16T17:26:35.053Z,26.20
2018-08-16T17:29:03.861Z,26.00
2018-08-16T17:31:32.584Z,26.00
2018-08-16T17:34:01.359Z,25.90
2018-08-16T17:36:30.529Z,25.80
2018-08-16T17:38:59.025Z,25.70
2018-08-16T17:41:28.216Z,25.60
2018-08-16T17:43:58.043Z,25.60
2018-08-16T17:46:26.754Z,25.50
2018-08-16T17:48:56.463Z,25.40
2018-08-16T17:51:26.569Z,25.40
2018-08-16T17:53:55.367Z,25.30
2018-08-16T17:56:23.778Z,25.20
2018-08-16T17:58:52.607Z,25.10
2018-08-16T18:01:22.634Z,25.00
2018-08-16T18:03:52.556Z,24.90
2018-08-16T18:06:21.378Z,24.80
2018-08-16T18:08:49.591Z,24.70
2018-08-16T18:11:17.829Z,24.60
2018-08-16T18:13:47.389Z,24.50
2018-08-16T18:16:15.590Z,24.40
2018-08-16T18:18:43.758Z,24.30
2018-08-16T18:21:12.023Z,24.20
2018-08-16T18:23:40.405Z,24.20
2018-08-16T18:26:09.717Z,24.20
2018-08-16T18:28:38.693Z,24.10
2018-08-16T18:31:07.913Z,24.00
2018-08-16T18:33:36.153Z,23.90
2018-08-16T18:36:05.632Z,24.00
2018-08-16T18:38:34.701Z,23.90
2018-08-16T18:41:03.822Z,23.90
2018-08-16T18:43:32.397Z,23.80
2018-08-16T18:46:01.446Z,23.70
2018-08-16T18:48:29.882Z,23.60
2018-08-16T18:50:58.383Z,23.50
2018-08-16T18:53:27.026Z,23.50
2018-08-16T18:55:55.408Z,23.40
2018-08-16T18:58:24.543Z,23.30
2018-08-16T19:00:54.513Z,23.20
2018-08-16T19:03:23.241Z,23.20
2018-08-16T19:05:52.249Z,23.10
2018-08-16T19:08:20.623Z,23.00
2018-08-16T19:10:49.437Z,22.80
2018-08-16T19:13:18.504Z,22.70
2018-08-16T19:15:47.302Z,22.70
2018-08-16T19:18:15.609Z,22.60
2018-08-16T19:20:44.048Z,22.60
2018-08-16T19:23:12.919Z,22.50
2018-08-16T19:25:42.612Z,22.50
2018-08-16T19:28:10.913Z,22.40
2018-08-16T19:30:39.112Z,22.30
2018-08-16T19:33:08.131Z,22.20
2018-08-16T19:35:36.762Z,22.20
2018-08-16T19:38:05.969Z,22.10
2018-08-16T19:40:34.907Z,22.00
2018-08-16T19:43:03.506Z,21.90
2018-08-16T19:45:31.761Z,21.80
2018-08-16T19:48:00.173Z,21.70
2018-08-16T19:50:28.427Z,21.70
2018-08-16T19:52:57.078Z,21.60
2018-08-16T19:55:25.249Z,21.60
2018-08-16T19:57:53.615Z,21.50
2018-08-16T20:00:22.158Z,21.40
2018-08-16T20:02:51.349Z,21.40
2018-08-16T20:05:19.554Z,21.40
2018-08-16T20:07:48.026Z,21.40
2018-08-16T20:10:17.022Z,21.30
2018-08-16T20:12:45.226Z,21.30
2018-08-16T20:15:13.497Z,21.30
2018-08-16T20:17:41.665Z,21.30
2018-08-16T20:20:10.554Z,21.20
2018-08-16T20:22:38.731Z,21.20
2018-08-16T20:25:08.428Z,21.10
2018-08-16T20:27:37.483Z,21.10
2018-08-16T20:30:06.960Z,21.00
2018-08-16T20:32:35.525Z,21.00
2018-08-16T20:35:04.307Z,21.00
2018-08-16T20:37:33.337Z,20.90
2018-08-16T20:40:01.718Z,20.80
2018-08-16T20:42:29.838Z,20.70
2018-08-16T20:44:58.063Z,20.70
2018-08-16T20:47:26.838Z,20.70
2018-08-16T20:49:54.972Z,20.70
2018-08-16T20:52:24.117Z,20.70
2018-08-16T20:54:53.942Z,20.60
2018-08-16T20:57:22.098Z,20.50
2018-08-16T20:59:50.303Z,20.40
2018-08-16T21:02:19.747Z,20.40
2018-08-16T21:04:48.822Z,20.40
2018-08-16T21:07:17.347Z,20.40
2018-08-16T21:09:45.501Z,20.30
2018-08-16T21:12:14.475Z,20.30
2018-08-16T21:14:44.078Z,20.20
2018-08-16T21:17:12.358Z,20.10
2018-08-16T21:19:42.323Z,20.10
2018-08-16T21:22:11.287Z,20.00
2018-08-16T21:24:39.594Z,20.00
2018-08-16T21:27:08.581Z,19.90
2018-08-16T21:29:36.789Z,19.90
2018-08-16T21:32:05.366Z,19.80
2018-08-16T21:34:33.497Z,19.80
2018-08-16T21:37:02.117Z,19.70
2018-08-16T21:39:30.862Z,19.70
2018-08-16T21:41:59.360Z,19.60
2018-08-16T21:44:29.147Z,19.50
2018-08-16T21:46:57.726Z,19.40
2018-08-16T21:49:26.429Z,19.30
2018-08-16T21:51:55.398Z,19.30
2018-08-16T21:54:23.994Z,19.30
2018-08-16T21:56:52.966Z,19.30
2018-08-16T21:59:21.224Z,19.20
2018-08-16T22:01:49.361Z,19.20
2018-08-16T22:04:17.977Z,19.10
2018-08-16T22:07:03.413Z,19.10
2018-08-16T22:10:34.793Z,19.00
2018-08-16T22:13:03.480Z,19.00
2018-08-16T22:15:32.209Z,19.00
2018-08-16T22:18:01.126Z,19.00
2018-08-16T22:20:29.217Z,19.00
2018-08-16T22:22:58.170Z,19.00
2018-08-16T22:25:26.872Z,18.90
2018-08-16T22:27:55.308Z,18.90
2018-08-16T22:30:24.225Z,18.90
2018-08-16T22:32:53.214Z,18.90
2018-08-16T22:35:21.342Z,18.80
2018-08-16T22:37:50.209Z,18.80
2018-08-16T22:40:18.921Z,18.80
2018-08-16T22:42:47.282Z,18.70
2018-08-16T22:45:15.997Z,18.70
2018-08-16T22:47:44.217Z,18.70
2018-08-16T22:50:12.894Z,18.70
2018-08-16T22:52:42.084Z,18.70
2018-08-16T22:55:12.163Z,18.60
2018-08-16T22:57:41.257Z,18.60
2018-08-16T23:00:11.242Z,18.60
2018-08-16T23:02:40.278Z,18.50
2018-08-16T23:05:10.928Z,18.50
2018-08-16T23:07:39.243Z,18.50
2018-08-16T23:10:07.666Z,18.50
2018-08-16T23:12:35.856Z,18.50
2018-08-16T23:15:04.848Z,18.40
2018-08-16T23:17:33.086Z,18.40
2018-08-16T23:20:01.490Z,18.40
2018-08-16T23:22:30.879Z,18.40
2018-08-16T23:24:59.090Z,18.40
2018-08-16T23:27:27.306Z,18.40
2018-08-16T23:29:56.743Z,18.40
2018-08-16T23:32:25.239Z,18.40
2018-08-16T23:34:53.468Z,18.30
2018-08-16T23:37:21.745Z,18.30
2018-08-16T23:39:50.015Z,18.20
2018-08-16T23:42:18.970Z,18.20
2018-08-16T23:44:47.955Z,18.20
2018-08-16T23:47:20.898Z,18.00
2018-08-16T23:49:50.329Z,18.00
2018-08-16T23:52:19.109Z,18.00
2018-08-16T23:54:48.257Z,18.00
2018-08-16T23:57:16.501Z,17.90
2018-08-16T23:59:44.737Z,17.90
